Time;durP1;ratioP1;P1;durP2;ratioP2;P2;SDS_P1;SDS_P2;PMS_P1;PMS_P2;Temp;Humidity;BMP_temperature;BMP_pressure;BME280_temperature;BME280_humidity;BME280_pressure;Samples;Min_cycle;Max_cycle;Signal;HPM_P1;HPM_P2
2023/11/17 00:01:48;;;;;;;12.60;5.80;;;8.20;1.00;;;;;;5073200;28;20459;-81
2023/11/17 00:07:36;;;;;;;14.37;6.37;;;8.30;1.00;;;;;;5074418;28;20940;-71
2023/11/17 00:10:03;;;;;;;14.83;5.93;;;8.30;1.00;;;;;;5078484;28;20437;-71
2023/11/17 00:12:29;;;;;;;26.33;6.60;;;8.30;1.00;;;;;;5061189;28;20505;-72
2023/11/17 00:14:55;;;;;;;16.60;5.80;;;8.30;1.00;;;;;;5070640;28;20496;-72
2023/11/17 00:17:22;;;;;;;12.30;5.50;;;;;;;;;;5090134;28;20440;-72
2023/11/17 00:19:48;;;;;;;7.93;4.53;;;8.40;1.00;;;;;;5081191;28;20458;-72
2023/11/17 00:22:14;;;;;;;12.50;5.57;;;8.40;1.00;;;;;;5078255;28;20465;-72
2023/11/17 00:24:40;;;;;;;17.43;5.60;;;8.40;1.00;;;;;;5085212;28;20977;-71
2023/11/17 00:27:07;;;;;;;17.80;6.10;;;;;;;;;;5072068;28;20471;-72
2023/11/17 00:29:33;;;;;;;18.10;6.50;;;;;;;;;;5076694;28;20432;-72
2023/11/17 00:32:01;;;;;;;17.00;5.63;;;;;;;;;;5075610;28;20483;-72
2023/11/17 00:34:30;;;;;;;8.07;4.37;;;8.50;1.00;;;;;;5078844;28;20502;-72
2023/11/17 00:37:07;;;;;;;8.57;4.30;;;8.50;1.00;;;;;;5077896;28;20428;-72
2023/11/17 00:49:39;;;;;;;6.33;3.80;;;8.30;1.00;;;;;;5073122;28;20535;-82
2023/11/17 00:52:37;;;;;;;10.40;3.87;;;8.30;1.00;;;;;;5074403;28;20432;-82
2023/11/17 00:55:07;;;;;;;16.03;4.67;;;8.30;1.00;;;;;;5076178;28;20459;-72
2023/11/17 00:57:37;;;;;;;9.33;4.43;;;;;;;;;;5072749;28;20965;-72
2023/11/17 01:00:04;;;;;;;12.47;4.20;;;8.30;1.00;;;;;;5075583;28;20460;-71
2023/11/17 01:02:30;;;;;;;15.60;5.00;;;8.30;1.00;;;;;;5076181;28;20420;-72
2023/11/17 01:04:56;;;;;;;10.13;4.13;;;8.30;1.00;;;;;;5076386;28;20409;-72
2023/11/17 01:07:22;;;;;;;9.97;4.57;;;;;;;;;;5076432;28;20500;-72
2023/11/17 01:10:24;;;;;;;9.30;4.20;;;8.30;1.00;;;;;;5070036;28;20178;-82
2023/11/17 01:16:16;;;;;;;12.60;4.80;;;;;;;;;;5065827;28;21004;-82
2023/11/17 01:22:48;;;;;;;13.70;4.03;;;8.30;1.00;;;;;;5072927;28;20412;-82
2023/11/17 01:25:14;;;;;;;15.70;5.00;;;;;;;;;;5075919;28;20429;-71
2023/11/17 01:27:40;;;;;;;9.60;3.80;;;8.20;1.00;;;;;;5063602;28;20931;-71
2023/11/17 01:30:07;;;;;;;17.73;4.27;;;8.30;1.00;;;;;;5074013;28;20436;-72
2023/11/17 01:32:33;;;;;;;10.70;4.00;;;8.30;1.00;;;;;;5071434;28;20171;-72
2023/11/17 01:34:59;;;;;;;8.17;4.33;;;;;;;;;;5080598;28;20451;-72
2023/11/17 01:37:37;;;;;;;10.33;3.60;;;8.30;1.00;;;;;;5079865;28;20178;-72
2023/11/17 01:43:25;;;;;;;8.73;3.73;;;8.30;1.00;;;;;;5076911;28;20510;-82
2023/11/17 01:49:54;;;;;;;10.27;4.17;;;8.20;1.00;;;;;;5072219;28;20964;-81
2023/11/17 01:53:07;;;;;;;10.17;4.10;;;8.30;1.00;;;;;;5069178;28;20445;-82
2023/11/17 01:55:37;;;;;;;15.70;4.07;;;8.20;1.00;;;;;;5069863;28;20430;-71
2023/11/17 01:58:02;;;;;;;11.10;3.80;;;8.20;1.00;;;;;;5080143;28;21090;-72
2023/11/17 02:00:29;;;;;;;28.00;4.73;;;8.30;1.00;;;;;;5075196;28;20540;-72
2023/11/17 02:02:55;;;;;;;7.93;3.60;;;8.30;1.00;;;;;;5090891;28;20191;-72
2023/11/17 02:05:25;;;;;;;10.63;3.80;;;8.20;1.00;;;;;;5086565;28;20439;-72
2023/11/17 02:07:54;;;;;;;8.43;4.17;;;;;;;;;;5081202;28;20459;-72
2023/11/17 02:10:29;;;;;;;11.53;3.90;;;;;;;;;;5079092;28;20418;-72
2023/11/17 02:13:27;;;;;;;11.33;4.50;;;8.30;1.00;;;;;;5084583;28;20424;-72
2023/11/17 02:16:01;;;;;;;20.43;4.80;;;8.20;1.00;;;;;;5077645;28;20502;-72
2023/11/17 02:18:30;;;;;;;12.00;4.03;;;8.20;1.00;;;;;;5093803;28;20424;-72
2023/11/17 02:21:05;;;;;;;13.50;5.03;;;8.30;1.00;;;;;;5081180;28;20598;-72
2023/11/17 02:23:33;;;;;;;18.67;4.93;;;8.30;1.00;;;;;;5074740;28;20424;-72
2023/11/17 02:26:15;;;;;;;8.47;4.20;;;8.30;1.00;;;;;;5077669;28;20821;-71
2023/11/17 02:29:07;;;;;;;8.80;3.80;;;8.30;1.00;;;;;;5084085;28;20461;-72
2023/11/17 02:31:33;;;;;;;8.00;3.47;;;8.30;1.00;;;;;;5072408;28;20432;-71
2023/11/17 02:34:03;;;;;;;9.20;4.27;;;8.30;1.00;;;;;;5071186;28;20461;-72
2023/11/17 02:36:32;;;;;;;10.80;4.40;;;8.30;1.00;;;;;;5102602;28;20769;-72
2023/11/17 02:39:24;;;;;;;11.90;4.80;;;8.20;1.00;;;;;;5077102;28;20459;-72
2023/11/17 02:41:57;;;;;;;13.17;4.50;;;8.20;1.00;;;;;;5073736;28;20497;-72
2023/11/17 02:44:33;;;;;;;16.07;5.30;;;8.20;1.00;;;;;;5072038;28;20441;-72
2023/11/17 02:47:03;;;;;;;8.03;3.70;;;8.20;1.00;;;;;;5093855;28;20412;-72
2023/11/17 02:49:34;;;;;;;29.43;4.23;;;;;;;;;;5094776;28;21002;-72
2023/11/17 02:52:15;;;;;;;12.40;4.60;;;8.20;1.00;;;;;;5078737;28;20409;-72
2023/11/17 02:54:41;;;;;;;11.60;3.90;;;;;;;;;;5086289;28;21079;-72
2023/11/17 02:57:15;;;;;;;25.90;4.40;;;8.20;1.00;;;;;;5076504;28;20429;-72
2023/11/17 02:59:42;;;;;;;9.37;4.00;;;;;;;;;;5072995;28;20433;-71
2023/11/17 03:02:09;;;;;;;9.37;4.53;;;8.20;1.00;;;;;;5082581;28;20420;-72
2023/11/17 03:04:37;;;;;;;7.33;3.73;;;;;;;;;;5080875;28;20941;-71
2023/11/17 03:07:03;;;;;;;19.53;4.00;;;;;;;;;;5082979;28;20916;-71
2023/11/17 03:19:36;;;;;;;9.60;3.50;;;8.10;1.00;;;;;;5094460;28;20394;-82
2023/11/17 03:28:28;;;;;;;14.63;3.50;;;8.10;1.00;;;;;;5081437;28;20411;-82
2023/11/17 03:34:31;;;;;;;13.10;4.23;;;8.00;1.00;;;;;;5077551;28;20486;-82
2023/11/17 03:40:18;;;;;;;18.53;4.93;;;7.90;1.00;;;;;;5072326;28;20424;-72
2023/11/17 03:42:44;;;;;;;17.50;4.90;;;7.90;1.00;;;;;;5080514;28;20428;-72
2023/11/17 03:45:15;;;;;;;10.80;5.00;;;7.90;1.00;;;;;;5076269;28;20193;-72
2023/11/17 03:47:41;;;;;;;19.80;5.10;;;;;;;;;;5074745;28;20191;-72
2023/11/17 03:50:12;;;;;;;13.53;5.33;;;7.80;1.00;;;;;;5072043;28;20442;-71
2023/11/17 03:52:38;;;;;;;10.20;4.70;;;7.80;1.00;;;;;;5071386;28;20432;-72
2023/11/17 03:55:13;;;;;;;9.00;4.83;;;7.70;1.00;;;;;;5087458;28;20452;-72
2023/11/17 03:57:49;;;;;;;11.97;4.80;;;7.70;1.00;;;;;;5071663;28;20431;-72
2023/11/17 04:00:16;;;;;;;11.00;4.30;;;7.70;1.00;;;;;;5072058;28;20778;-72
2023/11/17 04:02:42;;;;;;;12.50;5.27;;;7.70;1.00;;;;;;5084794;28;20523;-72
2023/11/17 04:05:13;;;;;;;9.50;4.60;;;7.60;1.00;;;;;;5082145;28;20436;-72
2023/11/17 04:07:49;;;;;;;13.07;5.00;;;7.60;1.00;;;;;;5076758;28;20214;-72
2023/11/17 04:17:01;;;;;;;11.80;4.63;;;;;;;;;;5078181;28;20382;-82
2023/11/17 04:22:49;;;;;;;33.67;5.83;;;7.20;1.00;;;;;;5068718;28;20487;-82
2023/11/17 04:25:15;;;;;;;18.73;5.53;;;7.10;1.00;;;;;;5074314;28;20471;-72
2023/11/17 04:27:42;;;;;;;12.00;5.33;;;;;;;;;;5086586;28;20435;-72
2023/11/17 04:30:09;;;;;;;8.83;4.60;;;;;;;;;;5088476;28;20214;-72
2023/11/17 04:32:35;;;;;;;10.50;4.03;;;7.00;1.00;;;;;;5076396;28;20460;-73
2023/11/17 04:35:02;;;;;;;12.13;4.60;;;;;;;;;;5082948;28;20955;-72
2023/11/17 04:37:28;;;;;;;12.43;4.37;;;;;;;;;;5089370;28;20456;-72
2023/11/17 04:39:55;;;;;;;6.17;3.67;;;;;;;;;;5079389;28;20441;-72
2023/11/17 04:42:21;;;;;;;8.43;4.07;;;;;;;;;;5077412;28;20511;-72
2023/11/17 04:44:49;;;;;;;20.43;4.77;;;6.80;1.00;;;;;;5077294;28;20442;-71
2023/11/17 04:47:15;;;;;;;8.60;4.10;;;;;;;;;;5080962;28;20425;-72
2023/11/17 04:49:44;;;;;;;16.83;4.77;;;6.70;1.00;;;;;;5076723;28;20433;-72
2023/11/17 04:52:10;;;;;;;14.13;5.10;;;6.60;1.00;;;;;;5076316;28;20436;-72
2023/11/17 04:54:35;;;;;;;16.60;6.17;;;6.60;1.00;;;;;;5075307;28;20464;-71
2023/11/17 05:03:45;;;;;;;11.53;5.50;;;6.30;1.00;;;;;;5076850;28;20418;-81
2023/11/17 05:12:36;;;;;;;20.17;5.70;;;6.20;1.00;;;;;;5080190;28;20384;-82
2023/11/17 05:15:07;;;;;;;17.07;6.47;;;;;;;;;;5075830;28;20548;-83
2023/11/17 05:20:55;;;;;;;12.57;5.80;;;6.10;2.40;;;;;;5094355;28;20404;-82
2023/11/17 05:26:43;;;;;;;17.50;7.30;;;;;;;;;;5075505;28;20282;-71
2023/11/17 05:29:10;;;;;;;21.87;7.70;;;;;;;;;;5074764;28;20974;-71
2023/11/17 05:31:37;;;;;;;19.20;6.80;;;;;;;;;;5070738;28;20892;-71
2023/11/17 05:34:03;;;;;;;21.07;6.20;;;;;;;;;;5080771;28;20448;-72
2023/11/17 05:36:28;;;;;;;24.33;6.80;;;5.90;4.70;;;;;;5074707;28;20914;-72
2023/11/17 05:38:55;;;;;;;17.23;6.70;;;;;;;;;;5069672;28;20434;-72
2023/11/17 05:41:23;;;;;;;16.23;6.50;;;;;;;;;;5080819;28;20689;-71
2023/11/17 05:43:49;;;;;;;16.97;8.20;;;;;;;;;;5082129;28;20420;-71
2023/11/17 05:46:15;;;;;;;15.07;6.43;;;5.80;5.00;;;;;;5076576;28;20440;-71
2023/11/17 05:48:41;;;;;;;18.10;7.23;;;;;;;;;;5080062;28;20453;-71
2023/11/17 05:51:19;;;;;;;24.03;7.50;;;5.80;4.50;;;;;;5088468;28;20304;-71
2023/11/17 05:53:49;;;;;;;19.80;8.40;;;5.80;2.80;;;;;;5088548;28;20536;-71
2023/11/17 05:56:16;;;;;;;33.97;8.00;;;5.80;5.30;;;;;;5072498;28;20970;-81
2023/11/17 05:58:55;;;;;;;24.27;7.10;;;5.80;5.50;;;;;;5068858;28;20820;-81
2023/11/17 06:01:48;;;;;;;26.43;8.80;;;5.80;4.50;;;;;;5075732;28;20427;-81
2023/11/17 06:07:37;;;;;;;19.97;8.50;;;5.70;4.70;;;;;;5095883;28;20360;-81
2023/11/17 06:10:25;;;;;;;20.40;8.80;;;5.70;4.80;;;;;;5080763;28;20429;-81
2023/11/17 06:16:42;;;;;;;20.20;8.77;;;5.60;4.80;;;;;;5075850;28;20515;-81
2023/11/17 06:19:42;;;;;;;16.77;7.47;;;5.60;5.20;;;;;;5088749;28;20409;-81
2023/11/17 06:25:34;;;;;;;44.03;10.90;;;5.50;4.50;;;;;;5072644;28;20518;-80
2023/11/17 06:28:01;;;;;;;24.97;9.40;;;5.40;3.80;;;;;;5089737;28;20413;-80
2023/11/17 06:30:31;;;;;;;25.23;9.70;;;;;;;;;;5067847;28;20780;-80
2023/11/17 06:33:07;;;;;;;17.63;7.67;;;5.30;6.10;;;;;;5066771;28;20504;-79
2023/11/17 06:35:33;;;;;;;19.00;8.23;;;;;;;;;;5077026;28;20412;-80
2023/11/17 06:38:03;;;;;;;15.37;8.30;;;;;;;;;;5071330;28;20492;-80
2023/11/17 06:41:18;;;;;;;20.47;8.43;;;5.30;7.10;;;;;;5057066;28;20809;-80
2023/11/17 06:47:19;;;;;;;25.07;8.77;;;5.30;5.60;;;;;;5062775;28;20429;-79
2023/11/17 06:56:13;;;;;;;16.13;8.40;;;5.30;6.10;;;;;;5073950;28;20384;-80
2023/11/17 06:59:24;;;;;;;17.73;8.67;;;5.20;7.70;;;;;;5074601;28;20429;-77
2023/11/17 07:02:19;;;;;;;17.83;7.73;;;5.30;7.00;;;;;;5069225;28;20405;-83
2023/11/17 07:05:24;;;;;;;17.90;8.40;;;5.30;7.00;;;;;;5061173;28;20912;-83
2023/11/17 07:07:53;;;;;;;16.83;8.73;;;;;;;;;;5073490;28;20409;-84
2023/11/17 07:13:41;;;;;;;20.33;8.97;;;5.20;8.50;;;;;;5072423;28;20456;-81
2023/11/17 07:16:12;;;;;;;24.37;8.80;;;;;;;;;;5075119;28;20442;-80
2023/11/17 07:19:32;;;;;;;17.50;8.00;;;5.30;10.00;;;;;;5072665;28;21063;-80
2023/11/17 07:25:31;;;;;;;16.77;9.00;;;5.40;10.40;;;;;;5074295;28;20436;-79
2023/11/17 07:35:26;;;;;;;16.77;7.87;;;5.60;11.00;;;;;;5053723;28;20476;-80
2023/11/17 07:38:25;;;;;;;16.67;8.80;;;5.60;10.80;;;;;;5066766;28;20500;-78
2023/11/17 07:41:07;;;;;;;20.33;8.63;;;;;;;;;;5087587;28;20424;-79
2023/11/17 07:47:36;;;;;;;21.50;8.57;;;5.80;11.90;;;;;;5073470;28;20532;-77
2023/11/17 07:50:07;;;;;;;29.27;8.27;;;5.80;11.80;;;;;;5076856;28;20428;-76
2023/11/17 07:52:49;;;;;;;20.20;7.53;;;6.00;13.70;;;;;;5071496;28;20426;-77
2023/11/17 07:55:31;;;;;;;19.70;7.63;;;6.00;12.90;;;;;;5078700;28;20441;-77
2023/11/17 07:57:57;;;;;;;24.13;8.23;;;6.10;9.80;;;;;;5087284;28;20440;-76
2023/11/17 08:00:46;;;;;;;19.90;7.90;;;6.20;10.00;;;;;;5068763;28;20466;-77
2023/11/17 08:03:14;;;;;;;20.73;7.00;;;6.30;9.60;;;;;;5073470;28;20416;-77
2023/11/17 08:05:43;;;;;;;27.13;8.53;;;6.30;10.60;;;;;;5074345;28;20420;-76
2023/11/17 08:08:55;;;;;;;13.83;7.00;;;6.30;11.70;;;;;;5079153;28;20490;-76
2023/11/17 08:12:07;;;;;;;14.80;7.33;;;6.50;10.50;;;;;;5059406;28;20501;-77
2023/11/17 08:17:55;;;;;;;10.43;5.20;;;6.70;7.80;;;;;;5053612;28;20373;-79
2023/11/17 08:20:22;;;;;;;14.93;5.77;;;;;;;;;;5059917;28;20433;-86
2023/11/17 08:23:07;;;;;;;15.43;6.80;;;;;;;;;;5055344;28;20191;-86
2023/11/17 08:25:32;;;;;;;24.90;8.00;;;7.00;6.80;;;;;;5034706;28;20473;-72
2023/11/17 08:28:02;;;;;;;14.70;6.60;;;;;;;;;;5067617;28;20787;-81
2023/11/17 08:33:51;;;;;;;15.03;7.83;;;;;;;;;;5072344;28;20866;-80
2023/11/17 08:36:17;;;;;;;15.77;7.30;;;7.30;6.80;;;;;;5078640;28;20427;-80
2023/11/17 08:42:12;;;;;;;34.93;12.07;;;7.60;1.10;;;;;;5072940;28;20399;-72
2023/11/17 08:44:39;;;;;;;29.20;12.80;;;7.70;1.00;;;;;;5072691;28;20420;-72
2023/11/17 08:47:07;;;;;;;24.60;11.60;;;7.70;1.00;;;;;;5085572;28;20405;-72
2023/11/17 08:49:36;;;;;;;29.10;13.27;;;7.80;1.00;;;;;;5077161;28;20438;-72
2023/11/17 08:52:05;;;;;;;25.73;12.27;;;7.90;1.00;;;;;;5090311;28;20475;-73
2023/11/17 08:54:43;;;;;;;27.23;12.90;;;;;;;;;;5064351;28;20448;-75
2023/11/17 08:57:09;;;;;;;27.03;11.33;;;;;;;;;;5079703;28;20421;-73
2023/11/17 08:59:37;;;;;;;28.73;9.50;;;8.10;1.00;;;;;;5072777;28;20463;-73
2023/11/17 09:02:05;;;;;;;21.10;9.30;;;;;;;;;;5072646;28;20445;-72
2023/11/17 09:04:31;;;;;;;20.17;8.20;;;;;;;;;;5067224;28;20433;-71
2023/11/17 09:13:40;;;;;;;17.00;7.20;;;8.60;1.00;;;;;;5081118;28;20466;-72
2023/11/17 09:16:09;;;;;;;17.47;7.57;;;8.70;1.00;;;;;;5074947;28;20437;-74
2023/11/17 09:18:35;;;;;;;17.47;7.23;;;8.80;1.00;;;;;;5089647;28;20240;-74
2023/11/17 09:21:05;;;;;;;13.27;7.10;;;8.90;1.00;;;;;;5076116;28;20441;-72
2023/11/17 09:23:34;;;;;;;12.63;6.60;;;8.90;1.00;;;;;;5068892;28;20457;-72
2023/11/17 09:26:05;;;;;;;16.63;7.50;;;9.00;1.00;;;;;;5079524;28;20466;-72
2023/11/17 09:28:31;;;;;;;33.47;6.97;;;;;;;;;;5073895;28;20437;-75
2023/11/17 09:31:07;;;;;;;8.00;5.20;;;9.10;1.00;;;;;;5089732;28;20489;-75
2023/11/17 09:34:18;;;;;;;9.40;5.83;;;9.20;1.00;;;;;;5072007;28;20452;-73
2023/11/17 09:36:44;;;;;;;12.00;5.40;;;9.10;1.00;;;;;;5081175;28;20407;-79
2023/11/17 09:39:13;;;;;;;20.63;6.13;;;9.00;1.00;;;;;;5087266;28;20754;-78
2023/11/17 09:42:07;;;;;;;9.17;4.80;;;8.90;1.00;;;;;;5096137;28;20626;-78
2023/11/17 09:44:39;;;;;;;18.13;6.30;;;8.90;1.00;;;;;;5071646;28;20814;-78
2023/11/17 09:47:27;;;;;;;11.50;5.63;;;8.80;1.00;;;;;;5086721;28;21311;-77
2023/11/17 09:49:55;;;;;;;24.50;5.57;;;8.70;1.00;;;;;;5075618;28;20936;-83
2023/11/17 09:56:15;;;;;;;10.50;5.93;;;9.20;1.00;;;;;;5076687;28;20941;-81
2023/11/17 09:58:44;;;;;;;61.33;10.30;;;;;;;;;;5064329;28;20433;-81
2023/11/17 10:01:19;;;;;;;16.53;6.37;;;;;;;;;;5081196;28;20425;-82
2023/11/17 10:04:32;;;;;;;14.10;5.10;;;9.40;1.00;;;;;;5063664;28;20418;-81
2023/11/17 10:06:58;;;;;;;13.63;5.17;;;;;;;;;;5075942;28;20533;-81
2023/11/17 10:16:08;;;;;;;7.23;4.10;;;9.70;1.00;;;;;;5075945;28;20420;-81
2023/11/17 10:28:39;;;;;;;8.97;4.53;;;10.70;1.00;;;;;;5057343;28;20412;-74
2023/11/17 10:31:07;;;;;;;7.13;4.40;;;10.80;1.00;;;;;;5072194;28;20439;-74
2023/11/17 10:34:27;;;;;;;8.10;4.50;;;10.80;1.00;;;;;;5074766;28;20265;-74
2023/11/17 10:37:09;;;;;;;7.90;4.47;;;10.70;1.00;;;;;;5043463;28;20548;-74
2023/11/17 10:39:56;;;;;;;5.90;4.07;;;10.70;1.00;;;;;;5046984;28;20427;-73
2023/11/17 10:42:42;;;;;;;6.07;3.83;;;10.80;1.00;;;;;;5035065;28;20411;-74
2023/11/17 10:45:18;;;;;;;10.10;4.80;;;10.90;1.00;;;;;;5048458;28;20526;-74
2023/11/17 10:48:17;;;;;;;;;;;;;;;;;;;;;
2023/11/17 10:51:05;;;;;;;7.33;4.73;;;11.30;1.00;;;;;;4993242;28;20822;-74
2023/11/17 10:53:31;;;;;;;9.23;4.67;;;11.40;1.00;;;;;;4992808;28;20460;-74
2023/11/17 10:56:01;;;;;;;8.30;4.87;;;11.50;1.00;;;;;;4992503;28;20472;-74
2023/11/17 10:58:51;;;;;;;8.40;4.53;;;11.70;1.00;;;;;;4992611;28;20448;-74
2023/11/17 11:01:17;;;;;;;7.77;5.27;;;11.80;1.00;;;;;;4992891;28;20994;-74
2023/11/17 11:03:43;;;;;;;11.60;5.57;;;11.80;1.00;;;;;;4992854;28;20444;-74
2023/11/17 11:06:08;;;;;;;6.70;4.53;;;11.80;1.00;;;;;;4985626;28;20185;-75
2023/11/17 11:08:53;;;;;;;10.53;5.73;;;11.80;1.00;;;;;;4991340;28;20284;-74
2023/11/17 11:11:23;;;;;;;15.70;4.93;;;11.80;1.00;;;;;;4973704;28;20632;-76
2023/11/17 11:17:11;;;;;;;9.40;5.53;;;11.80;1.00;;;;;;4986558;28;20394;-83
2023/11/17 11:20:04;;;;;;;10.70;4.57;;;11.90;1.00;;;;;;4993277;28;20864;-83
2023/11/17 11:23:15;;;;;;;9.00;3.73;;;11.90;1.00;;;;;;5001265;28;20435;-81
2023/11/17 11:29:04;;;;;;;11.43;4.60;;;11.80;1.00;;;;;;5065448;28;20482;-74
2023/11/17 11:31:50;;;;;;;6.80;4.17;;;11.90;1.00;;;;;;5081251;28;20476;-75
2023/11/17 11:34:20;;;;;;;6.47;3.70;;;11.90;1.00;;;;;;5084212;28;20455;-75
2023/11/17 11:36:55;;;;;;;7.00;3.73;;;11.90;1.00;;;;;;5075212;28;20401;-74
2023/11/17 11:39:25;;;;;;;5.63;3.63;;;11.90;1.00;;;;;;5079006;28;20854;-74
2023/11/17 11:41:51;;;;;;;12.80;4.27;;;11.80;1.00;;;;;;5083754;28;20933;-74
2023/11/17 11:44:26;;;;;;;4.07;3.10;;;;;;;;;;5073559;28;20432;-81
2023/11/17 11:47:25;;;;;;;8.10;3.60;;;11.60;1.00;;;;;;5067018;28;20482;-81
2023/11/17 11:56:57;;;;;;;5.90;3.23;;;11.20;1.00;;;;;;5056969;28;20474;-81
2023/11/17 12:02:53;;;;;;;6.73;4.13;;;10.50;1.00;;;;;;5086262;28;20443;-81
2023/11/17 12:05:23;;;;;;;8.60;4.23;;;10.50;1.00;;;;;;5085936;28;20428;-81
2023/11/17 12:08:27;;;;;;;12.80;4.47;;;10.30;1.00;;;;;;5060158;28;20848;-80
2023/11/17 12:14:34;;;;;;;12.73;5.07;;;10.20;1.00;;;;;;5073505;28;20540;-81
2023/11/17 12:20:38;;;;;;;10.30;4.10;;;10.30;1.00;;;;;;5076840;28;20437;-81
2023/11/17 12:23:14;;;;;;;11.67;4.30;;;10.30;1.00;;;;;;5093356;28;20491;-81
2023/11/17 12:29:02;;;;;;;109.33;12.47;;;;;;;;;;5066764;28;20937;-76
2023/11/17 12:31:55;;;;;;;6.90;3.80;;;10.30;1.00;;;;;;5072431;28;20433;-81
2023/11/17 12:37:43;;;;;;;8.30;4.10;;;10.50;1.00;;;;;;5079376;28;20470;-81
2023/11/17 12:40:54;;;;;;;14.50;4.23;;;10.40;1.00;;;;;;5085598;28;20416;-81
2023/11/17 12:46:44;;;;;;;10.40;4.93;;;10.10;1.00;;;;;;5068811;28;20938;-74
2023/11/17 12:49:12;;;;;;;11.47;4.83;;;10.10;1.00;;;;;;5068123;28;20458;-75
2023/11/17 12:51:38;;;;;;;17.03;6.00;;;10.10;1.00;;;;;;5089961;28;20621;-75
2023/11/17 12:54:06;;;;;;;23.00;6.13;;;10.40;1.00;;;;;;5078203;28;20469;-74
2023/11/17 12:56:38;;;;;;;17.17;6.53;;;;;;;;;;5089019;28;20432;-74
2023/11/17 12:59:32;;;;;;;12.17;5.87;;;10.60;1.00;;;;;;5077412;28;20974;-74
2023/11/17 13:02:01;;;;;;;19.33;6.57;;;10.60;1.00;;;;;;5076491;28;20970;-73
2023/11/17 13:04:27;;;;;;;21.20;6.50;;;10.70;1.00;;;;;;5088787;28;20900;-73
2023/11/17 13:07:13;;;;;;;12.60;5.80;;;10.80;1.00;;;;;;5076131;28;20614;-73
2023/11/17 13:10:02;;;;;;;21.40;6.23;;;10.90;1.00;;;;;;5072126;28;20186;-73
2023/11/17 13:12:39;;;;;;;12.80;5.80;;;11.00;1.00;;;;;;5082061;28;20463;-73
2023/11/17 13:15:10;;;;;;;17.70;6.73;;;;;;;;;;5085198;28;20866;-73
2023/11/17 13:17:44;;;;;;;11.43;5.57;;;10.90;1.00;;;;;;5091458;28;20937;-74
2023/11/17 13:20:21;;;;;;;20.30;5.87;;;10.90;1.00;;;;;;5081690;28;20441;-74
2023/11/17 13:23:14;;;;;;;12.90;6.20;;;11.10;1.00;;;;;;5063758;28;20523;-76
2023/11/17 13:26:15;;;;;;;17.23;6.43;;;11.20;1.00;;;;;;5056567;28;20425;-75
2023/11/17 13:28:46;;;;;;;12.67;5.90;;;11.30;1.00;;;;;;5091098;28;20545;-73
2023/11/17 13:31:22;;;;;;;10.73;5.70;;;11.30;1.00;;;;;;5069468;28;20566;-73
2023/11/17 13:33:57;;;;;;;9.90;5.67;;;11.20;1.00;;;;;;5081586;28;20600;-75
2023/11/17 13:36:33;;;;;;;11.50;5.90;;;11.20;1.00;;;;;;5088374;28;20439;-74
2023/11/17 13:39:18;;;;;;;15.90;6.87;;;11.40;1.00;;;;;;5090059;28;20488;-73
2023/11/17 13:41:48;;;;;;;15.10;7.07;;;11.50;1.00;;;;;;5074061;28;20474;-73
2023/11/17 13:44:26;;;;;;;13.03;6.43;;;11.50;1.00;;;;;;5075627;28;20408;-76
2023/11/17 13:46:57;;;;;;;20.70;7.27;;;11.40;1.00;;;;;;5069930;28;20429;-72
2023/11/17 13:49:25;;;;;;;13.07;6.17;;;11.30;1.00;;;;;;5076682;28;20924;-73
2023/11/17 13:52:08;;;;;;;21.70;7.63;;;11.30;1.00;;;;;;5078914;28;20467;-72
2023/11/17 13:54:38;;;;;;;17.70;7.13;;;11.20;1.00;;;;;;5072490;28;20472;-72
2023/11/17 13:57:08;;;;;;;20.27;7.60;;;11.10;1.00;;;;;;5076514;28;20461;-73
2023/11/17 13:59:33;;;;;;;10.13;6.03;;;11.00;1.00;;;;;;5095007;28;20413;-72
2023/11/17 14:05:49;;;;;;;17.53;6.90;;;10.70;1.00;;;;;;5074655;28;20231;-79
2023/11/17 14:14:40;;;;;;;14.73;6.60;;;10.40;1.00;;;;;;5080309;28;21019;-78
2023/11/17 14:17:06;;;;;;;18.97;6.30;;;10.30;1.00;;;;;;5093406;28;20433;-78
2023/11/17 14:19:49;;;;;;;13.90;6.63;;;10.30;1.00;;;;;;5095346;28;20415;-78
2023/11/17 14:22:43;;;;;;;12.23;5.77;;;10.30;1.00;;;;;;5087477;28;20690;-78
2023/11/17 14:25:32;;;;;;;15.90;6.70;;;10.20;1.00;;;;;;5075276;28;20465;-79
2023/11/17 14:28:19;;;;;;;14.00;6.60;;;10.20;1.00;;;;;;5075534;28;20425;-78
2023/11/17 14:30:49;;;;;;;24.23;6.70;;;10.20;1.00;;;;;;5088159;28;20425;-78
2023/11/17 14:37:25;;;;;;;37.70;7.57;;;9.90;1.00;;;;;;5087965;28;20390;-81
2023/11/17 14:40:37;;;;;;;22.03;6.50;;;9.80;1.00;;;;;;5078874;28;20448;-81
2023/11/17 14:43:07;;;;;;;12.80;5.53;;;9.70;1.00;;;;;;5074446;28;20936;-82
2023/11/17 14:48:59;;;;;;;17.53;6.23;;;9.70;1.00;;;;;;5072563;28;20430;-81
2023/11/17 14:51:46;;;;;;;15.67;6.43;;;9.70;1.00;;;;;;5083030;28;20401;-81
2023/11/17 14:54:20;;;;;;;11.67;6.10;;;;;;;;;;5076652;28;20459;-81
2023/11/17 14:57:14;;;;;;;15.03;6.90;;;9.70;1.00;;;;;;5074114;28;20498;-81
2023/11/17 15:03:02;;;;;;;11.93;5.67;;;9.60;1.00;;;;;;5075698;28;21108;-79
2023/11/17 15:05:31;;;;;;;14.17;6.67;;;9.50;1.00;;;;;;5089704;28;20420;-80
2023/11/17 15:08:05;;;;;;;13.40;6.37;;;9.50;1.00;;;;;;5074790;28;20432;-80
2023/11/17 15:10:45;;;;;;;11.40;6.17;;;9.60;1.00;;;;;;5077976;28;20449;-79
2023/11/17 15:14:03;;;;;;;15.93;6.50;;;9.60;1.00;;;;;;5069813;28;20464;-80
2023/11/17 15:16:35;;;;;;;12.17;6.03;;;9.60;1.00;;;;;;5076691;28;20450;-79
2023/11/17 15:19:03;;;;;;;11.70;6.73;;;9.60;1.00;;;;;;5080915;28;20428;-79
2023/11/17 15:21:37;;;;;;;19.40;6.10;;;;;;;;;;5079049;28;20437;-79
2023/11/17 15:24:06;;;;;;;11.47;6.77;;;9.50;1.00;;;;;;5074176;28;20386;-79
2023/11/17 15:26:52;;;;;;;24.03;6.97;;;9.40;1.00;;;;;;5075226;28;20431;-79
2023/11/17 15:29:22;;;;;;;16.07;6.40;;;9.30;1.00;;;;;;5080832;28;20463;-79
2023/11/17 15:31:50;;;;;;;19.87;6.70;;;9.30;1.00;;;;;;5058327;28;20479;-72
2023/11/17 15:34:16;;;;;;;20.10;6.07;;;9.30;1.00;;;;;;5067874;28;20464;-73
2023/11/17 15:36:43;;;;;;;14.73;6.03;;;9.30;1.00;;;;;;5075476;28;20627;-73
2023/11/17 15:39:32;;;;;;;14.13;6.57;;;9.30;1.00;;;;;;5075277;28;20429;-78
2023/11/17 15:41:57;;;;;;;13.17;6.70;;;9.20;1.00;;;;;;5074890;28;20395;-73
2023/11/17 15:44:24;;;;;;;22.43;6.40;;;;;;;;;;5073509;28;20764;-72
2023/11/17 15:47:02;;;;;;;14.20;6.23;;;9.10;1.00;;;;;;5072698;28;20708;-81
2023/11/17 15:49:28;;;;;;;10.77;5.70;;;9.10;1.00;;;;;;5069109;28;20452;-81
2023/11/17 15:52:04;;;;;;;15.27;7.10;;;9.10;1.00;;;;;;5060023;28;20928;-81
2023/11/17 15:54:31;;;;;;;19.50;6.83;;;9.00;1.00;;;;;;5090246;28;20892;-81
2023/11/17 15:57:02;;;;;;;14.13;5.97;;;9.00;1.00;;;;;;5080117;28;20437;-81
2023/11/17 15:59:27;;;;;;;14.57;7.30;;;8.90;1.00;;;;;;5068091;28;20961;-81
2023/11/17 16:01:54;;;;;;;15.60;5.90;;;;;;;;;;5076301;28;20529;-72
2023/11/17 16:04:21;;;;;;;14.83;7.60;;;;;;;;;;5069156;28;20186;-72
2023/11/17 16:06:47;;;;;;;19.53;7.43;;;9.00;1.00;;;;;;5071709;28;20844;-73
2023/11/17 16:09:13;;;;;;;12.13;6.70;;;;;;;;;;5064858;28;20515;-72
2023/11/17 16:11:39;;;;;;;18.43;7.53;;;9.00;1.00;;;;;;5069262;28;20296;-73
2023/11/17 16:14:14;;;;;;;16.03;6.60;;;9.00;1.00;;;;;;5073329;28;20949;-73
2023/11/17 16:17:31;;;;;;;20.90;7.80;;;9.00;1.00;;;;;;5075898;28;20972;-81
2023/11/17 16:20:31;;;;;;;15.00;6.90;;;9.10;1.00;;;;;;5075467;28;20936;-77
2023/11/17 16:23:02;;;;;;;16.23;6.47;;;9.10;1.00;;;;;;5079638;28;20902;-78
2023/11/17 16:25:32;;;;;;;20.73;7.30;;;9.10;1.00;;;;;;5097828;28;20399;-77
2023/11/17 16:28:05;;;;;;;27.33;7.47;;;9.10;1.00;;;;;;5084811;28;20481;-78
2023/11/17 16:30:31;;;;;;;14.40;6.37;;;9.10;1.00;;;;;;5078508;28;20436;-77
2023/11/17 16:33:06;;;;;;;15.13;7.10;;;9.10;1.00;;;;;;5078513;28;20441;-79
2023/11/17 16:36:01;;;;;;;13.90;6.80;;;9.20;1.00;;;;;;5077135;28;20451;-78
2023/11/17 16:38:27;;;;;;;15.13;7.10;;;9.10;1.00;;;;;;5073961;28;20429;-79
2023/11/17 16:40:58;;;;;;;33.43;7.67;;;9.10;1.00;;;;;;5083506;28;20435;-78
2023/11/17 16:44:02;;;;;;;19.23;7.60;;;9.10;1.00;;;;;;5074348;28;20899;-78
2023/11/17 16:47:04;;;;;;;16.20;6.67;;;;;;;;;;5067727;28;20544;-78
2023/11/17 16:49:30;;;;;;;23.90;7.17;;;9.00;1.00;;;;;;5037729;28;21007;-78
2023/11/17 16:51:55;;;;;;;14.30;6.20;;;8.90;1.00;;;;;;5040091;28;20546;-80
2023/11/17 16:54:32;;;;;;;18.30;7.10;;;8.80;1.00;;;;;;5032368;28;20231;-78
2023/11/17 16:57:02;;;;;;;15.23;6.50;;;8.80;1.00;;;;;;5034649;28;20617;-78
2023/11/17 16:59:28;;;;;;;114.50;18.40;;;;;;;;;;5028923;28;20456;-79
2023/11/17 17:01:54;;;;;;;18.87;7.50;;;8.90;1.00;;;;;;5029350;28;20438;-73
2023/11/17 17:04:37;;;;;;;28.80;8.83;;;8.90;1.00;;;;;;5027592;28;20972;-75
2023/11/17 17:07:05;;;;;;;18.70;8.03;;;8.90;1.00;;;;;;5033213;28;20449;-74
2023/11/17 17:09:31;;;;;;;24.47;8.03;;;8.90;1.00;;;;;;5032149;28;20566;-72
2023/11/17 17:12:03;;;;;;;15.50;6.27;;;8.90;1.00;;;;;;5031361;28;20509;-73
2023/11/17 17:14:33;;;;;;;25.77;7.90;;;8.90;1.00;;;;;;5034068;28;20471;-74
2023/11/17 17:17:00;;;;;;;16.33;7.63;;;9.00;1.00;;;;;;5036549;28;20838;-74
2023/11/17 17:19:31;;;;;;;41.37;9.87;;;;;;;;;;5010981;28;20596;-74
2023/11/17 17:21:57;;;;;;;16.90;7.43;;;9.00;1.00;;;;;;5028562;28;20430;-73
2023/11/17 17:24:26;;;;;;;18.20;6.93;;;;;;;;;;5066906;28;20439;-72
2023/11/17 17:26:52;;;;;;;27.63;7.50;;;9.00;1.00;;;;;;5080189;28;20190;-72